Portada
METAR-TAF:

METAR-TAF

Aeropuertos :

Base Naval de Rota

Rota, España

latitud: 36-39N, longitud: 006-21W, altitud: 26 m

Observación

El informe se hizo hace 24 minutos, a las 12:30 UTC
Viento 8 kt del sur, variando entre sureste y sur-suroeste
Temperatura 23°C
Humedad 61%
Presión 1015 hPa
Visibilidad 10 km o más
Escasas nubes a una altura de 2500 ft

METAR: LERT 261230Z 18008KT 130V210 9999 FEW025 23/15 Q1015 NOSIG

Hora: 14:54 (12:54 UTC)

Pronóstico

El informe se hizo hace 4 horas y 54 minutos, a las 08:00 UTC
Pronóstico válido del 26 a las 09 UTC al 27 a las 09 UTC
Viento 10 kt del oeste-suroeste
Visibilidad 10 km o más
Escasas nubes a una altura de 2500 ft
Evolucionando progresivamente
del 26 a las 21 UTC al 26 a las 23 UTC
Viento 7 kt del sur

TAF: LERT 260800Z 2609/2709 24010KT 9999 FEW025 TX24/2614Z TN17/2706Z BECMG 2621/2623 18007KT

Observaciones y pronósticos meteorológicos de más de 4000 aeropuertos (mensajes METAR y TAF).

Los puntos amarillos y rojos representan las estaciones disponibles.

Ponga el ratón en el punto deseado para ver el nombre de la estación.

Haga clic para ver las observaciones y los pronósticos meteorológicos.

Para cambiar el mapa : haga clic en los botones verdes con una cruz de color negro para hacer un zoom, en el botón verde con un guión para alejar o en las flechas verdes para mapas adyacentes.


METAR-TAF: